Time;durP1;ratioP1;P1;durP2;ratioP2;P2;SDS_P1;SDS_P2;PMS_P1;PMS_P2;Temp;Humidity;BMP_temperature;BMP_pressure;BME280_temperature;BME280_humidity;BME280_pressure;Samples;Min_cycle;Max_cycle;Signal;HPM_P1;HPM_P2
2022/04/19 00:01:18;;;;;;;;;;;6.00;91.00;;;;;;5070293;28;19919;-84
2022/04/19 00:03:43;;;;;;;;;;;6.00;90.90;;;;;;5046710;28;20403;-85
2022/04/19 00:06:09;;;;;;;;;;;6.00;90.70;;;;;;5041063;28;19988;-83
2022/04/19 00:08:35;;;;;;;;;;;5.90;92.40;;;;;;5051717;28;19920;-83
2022/04/19 00:11:01;;;;;;;;;;;5.90;92.50;;;;;;5075861;28;20374;-85
2022/04/19 00:13:28;;;;;;;;;;;5.80;92.60;;;;;;5072428;28;19928;-84
2022/04/19 00:15:55;;;;;;;;;;;5.80;92.60;;;;;;5065859;28;19928;-83
2022/04/19 00:18:21;;;;;;;;;;;5.80;93.00;;;;;;5054579;28;19917;-83
2022/04/19 00:20:49;;;;;;;;;;;5.70;93.90;;;;;;5043182;28;19950;-83
2022/04/19 00:23:15;;;;;;;;;;;5.70;93.80;;;;;;5057353;28;19920;-84
2022/04/19 00:25:45;;;;;;;;;;;5.60;93.90;;;;;;5070572;28;19931;-83
2022/04/19 00:28:11;;;;;;;;;;;5.60;93.80;;;;;;5053978;28;19912;-84
2022/04/19 00:30:37;;;;;;;;;;;5.50;94.20;;;;;;5062425;28;20166;-84
2022/04/19 00:33:03;;;;;;;;;;;5.50;95.60;;;;;;5065375;28;19913;-83
2022/04/19 00:35:29;;;;;;;;;;;5.50;95.70;;;;;;5065144;28;20291;-83
2022/04/19 00:37:54;;;;;;;;;;;5.50;95.70;;;;;;5054381;28;19920;-84
2022/04/19 00:40:20;;;;;;;;;;;5.50;96.80;;;;;;5049327;28;19923;-84
2022/04/19 00:42:47;;;;;;;;;;;5.50;97.80;;;;;;5055688;28;19913;-83
2022/04/19 00:45:13;;;;;;;;;;;5.50;97.70;;;;;;5072728;28;19920;-85
2022/04/19 00:47:39;;;;;;;;;;;5.50;97.30;;;;;;5050099;28;19920;-84
2022/04/19 00:50:05;;;;;;;;;;;5.50;96.70;;;;;;5064736;28;19958;-85
2022/04/19 00:52:32;;;;;;;;;;;5.40;96.80;;;;;;5044654;28;23120;-84
2022/04/19 00:54:59;;;;;;;;;;;5.40;97.10;;;;;;5068297;28;20371;-84
2022/04/19 00:57:25;;;;;;;;;;;5.40;96.60;;;;;;5049383;28;20019;-85
2022/04/19 00:59:52;;;;;;;;;;;5.40;96.10;;;;;;5065172;28;20387;-85
2022/04/19 01:02:18;;;;;;;;;;;5.40;96.10;;;;;;5066193;28;19932;-84
2022/04/19 01:04:44;;;;;;;;;;;5.40;95.80;;;;;;5054568;28;19916;-84
2022/04/19 01:07:10;;;;;;;;;;;5.40;95.40;;;;;;5047899;28;19930;-84
2022/04/19 01:09:36;;;;;;;;;;;5.40;95.60;;;;;;5047472;28;19947;-83
2022/04/19 01:14:48;;;;;;;;;;;5.40;96.00;;;;;;5065745;28;20418;-85
2022/04/19 01:17:14;;;;;;;;;;;5.40;96.80;;;;;;5058661;28;19921;-85
2022/04/19 01:19:40;;;;;;;;;;;5.30;97.90;;;;;;5044244;28;19917;-85
2022/04/19 01:22:06;;;;;;;;;;;5.20;97.80;;;;;;5043497;28;19917;-85
2022/04/19 01:24:32;;;;;;;;;;;5.10;97.20;;;;;;5069374;28;19955;-85
2022/04/19 01:26:57;;;;;;;;;;;5.10;97.50;;;;;;5048417;28;20374;-85
2022/04/19 01:29:23;;;;;;;;;;;5.10;98.20;;;;;;5063499;28;19917;-84
2022/04/19 01:31:51;;;;;;;;;;;5.10;98.60;;;;;;5068521;28;19963;-84
2022/04/19 01:34:17;;;;;;;;;;;5.00;98.80;;;;;;5049880;28;19921;-84
2022/04/19 01:36:42;;;;;;;;;;;5.00;99.30;;;;;;5036911;28;19925;-83
2022/04/19 01:39:09;;;;;;;;;;;5.00;99.90;;;;;;5041464;28;19917;-84
2022/04/19 01:41:35;;;;;;;;;;;5.00;99.90;;;;;;5064194;28;19921;-84
2022/04/19 01:44:01;;;;;;;;;;;4.90;99.90;;;;;;5043538;28;19947;-84
2022/04/19 01:46:31;;;;;;;;;;;4.80;99.90;;;;;;5043180;28;19917;-85
2022/04/19 01:48:57;;;;;;;;;;;4.80;99.90;;;;;;5032500;28;20012;-85
2022/04/19 01:51:24;;;;;;;;;;;4.80;99.90;;;;;;5045081;28;19970;-84
2022/04/19 01:53:49;;;;;;;;;;;4.80;99.90;;;;;;5043977;28;19917;-83
2022/04/19 01:56:15;;;;;;;;;;;4.80;99.90;;;;;;5060573;28;19913;-84
2022/04/19 01:58:41;;;;;;;;;;;4.80;99.90;;;;;;5063956;28;20003;-84
2022/04/19 02:01:07;;;;;;;;;;;4.80;99.90;;;;;;5047462;28;19974;-84
2022/04/19 02:03:34;;;;;;;;;;;4.70;99.90;;;;;;5062221;28;19969;-84
2022/04/19 02:06:00;;;;;;;;;;;4.70;99.90;;;;;;5071950;28;19921;-84
2022/04/19 02:08:27;;;;;;;;;;;4.60;99.90;;;;;;5047348;28;19924;-84
2022/04/19 02:10:52;;;;;;;;;;;4.60;99.90;;;;;;5064926;28;19943;-84
2022/04/19 02:13:18;;;;;;;;;;;4.60;99.90;;;;;;5051989;28;19920;-84
2022/04/19 02:15:46;;;;;;;;;;;4.60;99.90;;;;;;5048632;28;19967;-83
2022/04/19 02:18:12;;;;;;;;;;;4.50;99.90;;;;;;5067578;28;19919;-84
2022/04/19 02:20:37;;;;;;;;;;;4.50;99.90;;;;;;5044547;28;19971;-84
2022/04/19 02:23:03;;;;;;;;;;;4.40;99.90;;;;;;5056230;28;19913;-84
2022/04/19 02:25:29;;;;;;;;;;;4.40;99.90;;;;;;5046133;28;19917;-84
2022/04/19 02:27:54;;;;;;;;;;;4.40;99.90;;;;;;5072524;28;19931;-83
2022/04/19 02:30:20;;;;;;;;;;;4.30;99.90;;;;;;5062998;28;19917;-84
2022/04/19 02:32:49;;;;;;;;;;;4.30;99.90;;;;;;5057502;28;20403;-83
2022/04/19 02:35:17;;;;;;;;;;;4.20;99.90;;;;;;5063061;28;19920;-83
2022/04/19 02:37:50;;;;;;;;;;;4.20;99.90;;;;;;5073730;28;20391;-84
2022/04/19 02:40:16;;;;;;;;;;;4.10;99.90;;;;;;5070481;28;20395;-83
2022/04/19 02:42:41;;;;;;;;;;;4.10;99.90;;;;;;5064847;28;20305;-83
2022/04/19 02:45:07;;;;;;;;;;;4.10;99.90;;;;;;5072475;28;20386;-83
2022/04/19 02:47:33;;;;;;;;;;;4.00;99.90;;;;;;5078282;28;19931;-82
2022/04/19 02:49:58;;;;;;;;;;;4.00;99.90;;;;;;5050876;28;19925;-83
2022/04/19 02:52:24;;;;;;;;;;;3.90;99.90;;;;;;5057106;28;19928;-83
2022/04/19 02:54:49;;;;;;;;;;;3.90;99.90;;;;;;5072426;28;19913;-84
2022/04/19 02:57:15;;;;;;;;;;;3.90;99.90;;;;;;5077741;28;19955;-83
2022/04/19 02:59:43;;;;;;;;;;;3.90;99.90;;;;;;5043370;28;19917;-84
2022/04/19 03:02:08;;;;;;;;;;;3.90;99.90;;;;;;5044815;28;19924;-84
2022/04/19 03:04:34;;;;;;;;;;;3.90;99.90;;;;;;5070440;28;20319;-83
2022/04/19 03:07:01;;;;;;;;;;;3.90;99.90;;;;;;5042608;28;19925;-83
2022/04/19 03:09:26;;;;;;;;;;;3.90;99.90;;;;;;5066559;28;20012;-83
2022/04/19 03:11:52;;;;;;;;;;;3.90;99.90;;;;;;5043793;28;19964;-83
2022/04/19 03:14:17;;;;;;;;;;;3.90;99.90;;;;;;5067628;28;19916;-84
2022/04/19 03:16:43;;;;;;;;;;;3.90;99.90;;;;;;5046866;28;20195;-82
2022/04/19 03:19:08;;;;;;;;;;;3.90;99.90;;;;;;5044969;28;19995;-85
2022/04/19 03:21:34;;;;;;;;;;;3.90;99.90;;;;;;5047795;28;19920;-85
2022/04/19 03:29:28;;;;;;;;;;;3.80;99.90;;;;;;5065695;28;19924;-84
2022/04/19 03:31:55;;;;;;;;;;;3.80;99.90;;;;;;5078684;28;19928;-85
2022/04/19 03:34:20;;;;;;;;;;;3.80;99.90;;;;;;5049880;28;19921;-84
2022/04/19 03:36:46;;;;;;;;;;;3.80;99.90;;;;;;5048671;28;19917;-86
2022/04/19 03:39:11;;;;;;;;;;;3.80;99.90;;;;;;5045929;28;20392;-85
2022/04/19 03:41:37;;;;;;;;;;;3.80;99.90;;;;;;5057276;28;20284;-87
2022/04/19 03:44:02;;;;;;;;;;;3.80;99.90;;;;;;5025762;28;20372;-85
2022/04/19 03:46:28;;;;;;;;;;;3.70;99.90;;;;;;5040505;28;19917;-86
2022/04/19 03:48:53;;;;;;;;;;;3.70;99.90;;;;;;5056349;28;19921;-87
2022/04/19 03:51:19;;;;;;;;;;;3.70;99.90;;;;;;5037393;28;20337;-87
2022/04/19 03:53:45;;;;;;;;;;;3.60;99.90;;;;;;5034735;28;19932;-86
2022/04/19 03:56:10;;;;;;;;;;;3.60;99.90;;;;;;5073383;28;19920;-87
2022/04/19 03:58:37;;;;;;;;;;;3.60;99.90;;;;;;5044190;28;19920;-88
2022/04/19 04:01:02;;;;;;;;;;;3.50;99.90;;;;;;5042034;28;20011;-88
2022/04/19 04:03:28;;;;;;;;;;;3.50;99.90;;;;;;5064668;28;20055;-87
2022/04/19 04:05:54;;;;;;;;;;;3.40;99.90;;;;;;5057272;28;20033;-87
2022/04/19 04:08:19;;;;;;;;;;;3.40;99.90;;;;;;5040796;28;19917;-87
2022/04/19 04:10:45;;;;;;;;;;;3.30;99.90;;;;;;5046578;28;19920;-87
2022/04/19 04:13:10;;;;;;;;;;;3.30;99.90;;;;;;5019590;28;19921;-88
2022/04/19 04:15:36;;;;;;;;;;;3.20;99.90;;;;;;5061098;28;19913;-87
2022/04/19 04:18:02;;;;;;;;;;;3.20;99.90;;;;;;5048389;28;19927;-87
2022/04/19 04:20:27;;;;;;;;;;;3.20;99.90;;;;;;5042978;28;20347;-86
2022/04/19 04:22:53;;;;;;;;;;;3.20;99.90;;;;;;5049378;28;19916;-87
2022/04/19 04:25:18;;;;;;;;;;;3.10;99.90;;;;;;5057093;28;19924;-86
2022/04/19 04:27:44;;;;;;;;;;;3.00;99.90;;;;;;5075061;28;19996;-86
2022/04/19 04:30:10;;;;;;;;;;;3.00;99.90;;;;;;5084367;28;19916;-85
2022/04/19 04:32:35;;;;;;;;;;;2.90;99.90;;;;;;5050167;28;20023;-88
2022/04/19 04:35:01;;;;;;;;;;;2.90;99.90;;;;;;5063857;28;19962;-87
2022/04/19 04:37:27;;;;;;;;;;;2.80;99.90;;;;;;5038644;28;19974;-87
2022/04/19 04:39:52;;;;;;;;;;;2.90;99.90;;;;;;5034914;28;19920;-87
2022/04/19 04:42:17;;;;;;;;;;;2.90;99.90;;;;;;5041450;28;19940;-87
2022/04/19 04:44:43;;;;;;;;;;;2.80;99.90;;;;;;5042321;28;20430;-87
2022/04/19 04:49:56;;;;;;;;;;;2.80;99.90;;;;;;5065074;28;20293;-87
2022/04/19 04:52:22;;;;;;;;;;;2.80;99.90;;;;;;5042526;28;19928;-86
2022/04/19 04:54:47;;;;;;;;;;;2.80;99.90;;;;;;5058350;28;20279;-87
2022/04/19 04:57:13;;;;;;;;;;;2.90;99.90;;;;;;5041363;28;19917;-87
2022/04/19 04:59:39;;;;;;;;;;;2.80;99.90;;;;;;5051200;28;19913;-87
2022/04/19 05:02:04;;;;;;;;;;;2.80;99.90;;;;;;5041528;28;19925;-87
2022/04/19 05:04:30;;;;;;;;;;;2.80;99.90;;;;;;5064031;28;19917;-87
2022/04/19 05:06:55;;;;;;;;;;;2.90;99.90;;;;;;5058068;22;19925;-84
2022/04/19 05:09:21;;;;;;;;;;;3.00;99.90;;;;;;5034588;28;19928;-84
2022/04/19 05:11:46;;;;;;;;;;;3.00;99.90;;;;;;5037310;28;19932;-82
2022/04/19 05:14:13;;;;;;;;;;;3.00;99.90;;;;;;5050920;28;19999;-84
2022/04/19 05:16:39;;;;;;;;;;;3.10;99.90;;;;;;5048281;28;19919;-84
2022/04/19 05:19:05;;;;;;;;;;;3.10;99.90;;;;;;5023613;28;19917;-84
2022/04/19 05:21:30;;;;;;;;;;;3.20;99.90;;;;;;5040424;28;19925;-84
2022/04/19 05:23:56;;;;;;;;;;;3.30;99.90;;;;;;5024336;28;19917;-84
2022/04/19 05:26:24;;;;;;;;;;;3.40;99.90;;;;;;5040289;28;19917;-84
2022/04/19 05:28:50;;;;;;;;;;;3.60;99.90;;;;;;5024121;28;19928;-84
2022/04/19 05:31:16;;;;;;;;;;;3.70;99.90;;;;;;5022155;28;19925;-83
2022/04/19 05:33:41;;;;;;;;;;;3.80;99.90;;;;;;5030448;28;20337;-84
2022/04/19 05:36:07;;;;;;;;;;;3.90;99.90;;;;;;5036383;28;19971;-84
2022/04/19 05:38:33;;;;;;;;;;;4.00;99.90;;;;;;5040455;28;19997;-84
2022/04/19 05:40:58;;;;;;;;;;;4.10;99.90;;;;;;5025008;28;19932;-84
2022/04/19 05:43:24;;;;;;;;;;;4.20;99.90;;;;;;5020709;28;20006;-84
2022/04/19 05:45:49;;;;;;;;;;;4.30;99.90;;;;;;5018476;28;19916;-83
2022/04/19 05:48:15;;;;;;;;;;;4.40;99.90;;;;;;5023747;28;19952;-84
2022/04/19 05:50:40;;;;;;;;;;;4.50;99.90;;;;;;5017107;28;19925;-84
2022/04/19 05:53:06;;;;;;;;;;;4.70;99.90;;;;;;5034133;28;19976;-83
2022/04/19 05:55:32;;;;;;;;;;;4.80;99.90;;;;;;5012593;28;19920;-84
2022/04/19 05:57:58;;;;;;;;;;;4.90;99.90;;;;;;5012687;28;20371;-82
2022/04/19 06:00:24;;;;;;;;;;;5.00;99.90;;;;;;5037126;28;19913;-84
2022/04/19 06:05:34;;;;;;;;;;;5.10;99.90;;;;;;5037022;28;19955;-84
2022/04/19 06:08:00;;;;;;;;;;;5.20;99.90;;;;;;5019393;28;19956;-84
2022/04/19 06:10:25;;;;;;;;;;;5.30;99.90;;;;;;5022622;28;19943;-84
2022/04/19 06:12:51;;;;;;;;;;;5.40;99.90;;;;;;5052902;28;20019;-84
2022/04/19 06:15:16;;;;;;;;;;;5.40;99.90;;;;;;5023580;28;19917;-81
2022/04/19 06:17:42;;;;;;;;;;;5.50;99.90;;;;;;5024431;28;19924;-83
2022/04/19 06:20:07;;;;;;;;;;;5.60;99.90;;;;;;5025787;28;19970;-83
2022/04/19 06:22:33;;;;;;;;;;;5.70;99.90;;;;;;5040566;28;20283;-83
2022/04/19 06:24:59;;;;;;;;;;;5.80;99.90;;;;;;5048496;28;19919;-83
2022/04/19 06:27:25;;;;;;;;;;;5.90;99.90;;;;;;5035928;28;19917;-83
2022/04/19 06:29:56;;;;;;;;;;;6.10;99.90;;;;;;5027073;28;19931;-83
2022/04/19 06:32:22;;;;;;;;;;;6.20;99.90;;;;;;5033721;28;19921;-83
2022/04/19 06:34:48;;;;;;;;;;;6.30;99.90;;;;;;5043442;28;20044;-83
2022/04/19 06:37:13;;;;;;;;;;;6.40;99.90;;;;;;5037918;28;20007;-84
2022/04/19 06:39:39;;;;;;;;;;;6.50;99.90;;;;;;5042702;28;19923;-82
2022/04/19 06:42:04;;;;;;;;;;;6.60;97.50;;;;;;5023256;28;19917;-83
2022/04/19 06:44:30;;;;;;;;;;;6.70;97.70;;;;;;5042394;28;19921;-83
2022/04/19 06:46:55;;;;;;;;;;;6.80;97.80;;;;;;5041659;28;19920;-84
2022/04/19 06:49:21;;;;;;;;;;;6.90;97.60;;;;;;5038300;28;20306;-84
2022/04/19 06:51:48;;;;;;;;;;;7.10;98.30;;;;;;5024589;28;20112;-83
2022/04/19 06:54:13;;;;;;;;;;;7.20;96.90;;;;;;5026869;28;19958;-84
2022/04/19 06:56:39;;;;;;;;;;;7.30;95.80;;;;;;5028409;28;20276;-84
2022/04/19 06:59:05;;;;;;;;;;;7.40;95.80;;;;;;5040881;28;19928;-84
2022/04/19 07:01:30;;;;;;;;;;;7.60;94.50;;;;;;5028133;28;20268;-84
2022/04/19 07:03:56;;;;;;;;;;;7.70;91.50;;;;;;5021074;28;19964;-84
2022/04/19 07:06:21;;;;;;;;;;;7.80;90.90;;;;;;5019887;28;19931;-83
2022/04/19 07:08:47;;;;;;;;;;;8.00;91.30;;;;;;5045314;28;20330;-84
2022/04/19 07:11:15;;;;;;;;;;;8.10;91.50;;;;;;5025584;28;19920;-84
2022/04/19 07:13:41;;;;;;;;;;;8.30;91.90;;;;;;5021594;28;19921;-82
2022/04/19 07:16:06;;;;;;;;;;;8.40;91.90;;;;;;5027680;28;19917;-82
2022/04/19 07:18:32;;;;;;;;;;;8.60;92.10;;;;;;5023868;28;20019;-81
2022/04/19 07:26:38;;;;;;;;;;;9.00;91.60;;;;;;5041002;28;20389;-82
2022/04/19 07:29:04;;;;;;;;;;;9.20;91.50;;;;;;5037118;28;20282;-82
2022/04/19 07:31:31;;;;;;;;;;;9.30;90.70;;;;;;5025198;28;20273;-82
2022/04/19 07:33:57;;;;;;;;;;;9.50;88.70;;;;;;5041842;28;20379;-82
2022/04/19 07:36:23;;;;;;;;;;;9.70;85.60;;;;;;5038817;28;20379;-83
2022/04/19 07:38:52;;;;;;;;;;;9.80;82.60;;;;;;5024308;28;19960;-82
2022/04/19 07:41:18;;;;;;;;;;;10.00;80.80;;;;;;5067981;28;19909;-82
2022/04/19 07:43:45;;;;;;;;;;;10.20;78.30;;;;;;5051338;28;19912;-82
2022/04/19 07:46:11;;;;;;;;;;;10.30;78.20;;;;;;5034623;28;20394;-82
2022/04/19 07:48:37;;;;;;;;;;;10.50;77.20;;;;;;5034401;28;19912;-83
2022/04/19 07:51:03;;;;;;;;;;;10.70;73.50;;;;;;5051126;28;19935;-82
2022/04/19 07:53:28;;;;;;;;;;;10.80;67.80;;;;;;5048460;28;19909;-82
2022/04/19 07:55:57;;;;;;;;;;;10.90;61.90;;;;;;5031236;28;19909;-82
2022/04/19 07:58:23;;;;;;;;;;;11.00;64.40;;;;;;5014859;28;20348;-82
2022/04/19 08:00:49;;;;;;;;;;;11.20;69.20;;;;;;5014474;28;19913;-83
2022/04/19 08:03:14;;;;;;;;;;;11.40;68.80;;;;;;5014629;28;19920;-82
2022/04/19 08:05:40;;;;;;;;;;;11.50;64.30;;;;;;5030859;28;20040;-82
2022/04/19 08:08:05;;;;;;;;;;;11.70;62.00;;;;;;5014349;28;19913;-83
2022/04/19 08:10:31;;;;;;;;;;;11.80;60.00;;;;;;5014417;28;19944;-82
2022/04/19 08:12:56;;;;;;;;;;;11.90;59.40;;;;;;5031051;28;19996;-82
2022/04/19 08:15:23;;;;;;;;;;;12.00;59.50;;;;;;5014120;28;19936;-82
2022/04/19 08:17:49;;;;;;;;;;;12.10;58.30;;;;;;5030847;28;20364;-82
2022/04/19 08:20:14;;;;;;;;;;;12.20;58.30;;;;;;5030451;28;19959;-82
2022/04/19 08:22:40;;;;;;;;;;;12.30;59.20;;;;;;5014086;28;20414;-82
2022/04/19 08:25:06;;;;;;;;;;;12.40;58.20;;;;;;5030470;28;20284;-82
2022/04/19 08:27:32;;;;;;;;;;;12.60;58.40;;;;;;5014149;28;19917;-82
2022/04/19 08:29:57;;;;;;;;;;;12.70;58.30;;;;;;5030428;28;19909;-82
2022/04/19 08:32:23;;;;;;;;;;;12.80;56.70;;;;;;5013903;28;19924;-82
2022/04/19 08:34:48;;;;;;;;;;;12.90;55.00;;;;;;5030379;28;19920;-82
2022/04/19 08:37:14;;;;;;;;;;;13.00;55.80;;;;;;5014141;28;19964;-82
2022/04/19 08:39:39;;;;;;;;;;;13.20;56.40;;;;;;5013969;28;19914;-82
2022/04/19 08:42:06;;;;;;;;;;;13.30;55.40;;;;;;5013782;28;19955;-82
2022/04/19 08:44:35;;;;;;;;;;;13.40;56.50;;;;;;5013623;28;19921;-82
2022/04/19 08:47:03;;;;;;;;;;;13.50;56.30;;;;;;5014101;28;20079;-82
2022/04/19 08:49:29;;;;;;;;;;;13.60;55.50;;;;;;5029889;28;19909;-82
2022/04/19 08:51:55;;;;;;;;;;;13.70;57.40;;;;;;5013554;28;20012;-82
2022/04/19 08:59:53;;;;;;;;;;;14.00;53.50;;;;;;5030730;28;19963;-82
2022/04/19 09:02:20;;;;;;;;;;;14.10;53.80;;;;;;5046468;28;19913;-83
2022/04/19 09:04:46;;;;;;;;;;;14.10;52.70;;;;;;5030016;28;19910;-82
2022/04/19 09:07:12;;;;;;;;;;;14.10;52.50;;;;;;5013439;28;20302;-82
2022/04/19 09:09:38;;;;;;;;;;;14.10;51.80;;;;;;5029509;28;19917;-82
2022/04/19 09:12:11;;;;;;;;;;;14.20;52.20;;;;;;5030000;28;20008;-82
2022/04/19 09:14:37;;;;;;;;;;;14.20;52.70;;;;;;5020950;28;19917;-81
2022/04/19 09:17:08;;;;;;;;;;;14.30;52.10;;;;;;5017891;28;19954;-81
2022/04/19 09:19:33;;;;;;;;;;;14.30;52.40;;;;;;5021100;28;20510;-81
2022/04/19 09:21:59;;;;;;;;;;;14.30;50.80;;;;;;5019781;28;20027;-81
2022/04/19 09:24:26;;;;;;;;;;;14.30;49.60;;;;;;5041993;28;20587;-81
2022/04/19 09:26:51;;;;;;;;;;;14.40;50.60;;;;;;5030130;28;19920;-81
2022/04/19 09:29:18;;;;;;;;;;;14.40;50.70;;;;;;5021651;28;19933;-81
2022/04/19 09:31:43;;;;;;;;;;;14.50;51.00;;;;;;5035510;28;19925;-81
2022/04/19 09:34:09;;;;;;;;;;;14.60;51.90;;;;;;5031343;28;19913;-81
2022/04/19 09:36:34;;;;;;;;;;;14.70;52.00;;;;;;5014948;28;20387;-81
2022/04/19 09:39:00;;;;;;;;;;;14.80;50.90;;;;;;5023464;28;20288;-81
2022/04/19 09:41:29;;;;;;;;;;;14.90;48.30;;;;;;5025394;28;20299;-80
2022/04/19 09:44:04;;;;;;;;;;;15.00;45.60;;;;;;5015429;28;19917;-81
2022/04/19 09:46:30;;;;;;;;;;;15.00;47.00;;;;;;5046447;28;19921;-81
2022/04/19 09:48:55;;;;;;;;;;;15.10;45.00;;;;;;5021461;28;19983;-81
2022/04/19 09:51:30;;;;;;;;;;;15.10;45.50;;;;;;5033568;28;19991;-81
2022/04/19 09:53:55;;;;;;;;;;;15.10;45.80;;;;;;5044644;28;20012;-81
2022/04/19 09:56:21;;;;;;;;;;;15.20;46.50;;;;;;5031286;28;20012;-81
2022/04/19 09:58:47;;;;;;;;;;;15.30;46.00;;;;;;5024794;28;19917;-81
2022/04/19 10:09:31;;;;;;;;;;;15.70;46.80;;;;;;5038755;28;20434;-81
2022/04/19 10:11:57;;;;;;;;;;;15.80;46.50;;;;;;5028832;28;19967;-81
2022/04/19 10:14:23;;;;;;;;;;;15.90;47.30;;;;;;5042213;28;19913;-81
2022/04/19 10:16:49;;;;;;;;;;;15.90;47.80;;;;;;5023962;28;19917;-81
2022/04/19 10:19:15;;;;;;;;;;;16.00;45.70;;;;;;5045481;28;19913;-81
2022/04/19 10:21:42;;;;;;;;;;;16.00;45.70;;;;;;5036566;28;20426;-81
2022/04/19 10:24:08;;;;;;;;;;;16.10;45.20;;;;;;5026870;28;19925;-82
2022/04/19 10:26:40;;;;;;;;;;;16.20;42.80;;;;;;5033213;28;20284;-81
2022/04/19 10:29:14;;;;;;;;;;;16.30;45.80;;;;;;5034423;28;19916;-81
2022/04/19 10:31:40;;;;;;;;;;;16.40;47.80;;;;;;5068777;28;19917;-81
2022/04/19 10:34:05;;;;;;;;;;;16.50;47.70;;;;;;5051442;28;19980;-81
2022/04/19 10:36:38;;;;;;;;;;;16.60;43.50;;;;;;5031096;28;19922;-81
2022/04/19 10:39:16;;;;;;;;;;;16.70;43.40;;;;;;5040814;28;19913;-81
2022/04/19 10:41:55;;;;;;;;;;;16.90;42.90;;;;;;5036515;28;20379;-81
2022/04/19 10:44:24;;;;;;;;;;;17.00;45.30;;;;;;5041060;28;19921;-81
2022/04/19 10:47:03;;;;;;;;;;;17.10;44.20;;;;;;5044241;28;19913;-81
2022/04/19 10:49:29;;;;;;;;;;;17.10;44.00;;;;;;5035479;28;19940;-80
2022/04/19 10:52:01;;;;;;;;;;;17.10;42.70;;;;;;5050900;28;19920;-81
2022/04/19 10:54:45;;;;;;;;;;;17.10;42.10;;;;;;5068468;28;19912;-80
2022/04/19 10:58:05;;;;;;;;;;;17.20;43.90;;;;;;5054530;28;19995;-81
2022/04/19 11:00:01;;;;;;;;;;;17.20;46.90;;;;;;5037128;28;19916;-81
2022/04/19 11:02:36;;;;;;;;;;;17.20;44.50;;;;;;5043592;28;19920;-81
2022/04/19 11:05:02;;;;;;;;;;;17.30;41.80;;;;;;5070330;28;19917;-81
2022/04/19 11:07:43;;;;;;;;;;;17.30;41.10;;;;;;5082995;22;19929;-88
2022/04/19 11:10:09;;;;;;;;;;;17.40;42.10;;;;;;5036632;28;20372;-87
2022/04/19 11:12:54;;;;;;;;;;;17.40;42.20;;;;;;5024604;28;19932;-88
2022/04/19 11:15:34;;;;;;;;;;;17.40;46.30;;;;;;5030326;28;20380;-88
2022/04/19 11:18:17;;;;;;;;;;;17.40;45.00;;;;;;5042491;28;19917;-88
2022/04/19 11:20:45;;;;;;;;;;;17.40;42.30;;;;;;5037623;28;20369;-88
2022/04/19 11:23:18;;;;;;;;;;;17.50;44.30;;;;;;5040903;28;20389;-89
2022/04/19 11:25:45;;;;;;;;;;;17.60;44.00;;;;;;5041201;28;20448;-88
2022/04/19 11:28:11;;;;;;;;;;;17.60;46.00;;;;;;5048656;28;19952;-87
2022/04/19 11:30:56;;;;;;;;;;;17.50;41.50;;;;;;5042497;28;19925;-87
2022/04/19 11:33:23;;;;;;;;;;;17.60;42.00;;;;;;5039091;28;19956;-88
2022/04/19 11:36:00;;;;;;;;;;;17.70;42.90;;;;;;5035473;28;19921;-88
2022/04/19 11:38:25;;;;;;;;;;;17.80;42.70;;;;;;5035168;28;19920;-87
2022/04/19 11:49:05;;;;;;;;;;;17.90;44.40;;;;;;5033564;28;20340;-88
2022/04/19 11:51:35;;;;;;;;;;;17.80;44.40;;;;;;5017431;28;19917;-88
2022/04/19 11:54:00;;;;;;;;;;;17.80;43.00;;;;;;5033205;28;20290;-87
2022/04/19 11:56:26;;;;;;;;;;;17.80;43.00;;;;;;5033232;28;19920;-88
2022/04/19 11:58:52;;;;;;;;;;;17.80;43.80;;;;;;5014796;28;19951;-88
2022/04/19 12:01:18;;;;;;;;;;;17.80;43.40;;;;;;5031508;28;19916;-88
2022/04/19 12:03:43;;;;;;;;;;;17.70;44.90;;;;;;5033070;28;20373;-88
2022/04/19 12:06:14;;;;;;;;;;;17.70;45.10;;;;;;5032902;28;20370;-88
2022/04/19 12:08:43;;;;;;;;;;;17.70;46.30;;;;;;5031608;28;20004;-88
2022/04/19 12:11:10;;;;;;;;;;;17.70;44.20;;;;;;5032339;28;19967;-88
2022/04/19 12:13:36;;;;;;;;;;;17.60;44.50;;;;;;5031488;28;20362;-89
2022/04/19 12:16:09;;;;;;;;;;;17.70;43.30;;;;;;5017124;28;19980;-87
2022/04/19 12:18:38;;;;;;;;;;;17.70;42.60;;;;;;5017070;28;19917;-88
2022/04/19 12:21:05;;;;;;;;;;;17.80;43.00;;;;;;5032718;28;20184;-88
2022/04/19 12:23:31;;;;;;;;;;;17.90;42.50;;;;;;5032682;28;19909;-88
2022/04/19 12:26:06;;;;;;;;;;;17.90;42.40;;;;;;5032705;28;19920;-88
2022/04/19 12:28:43;;;;;;;;;;;18.00;42.50;;;;;;5031945;28;20401;-87
2022/04/19 12:31:26;;;;;;;;;;;18.10;43.40;;;;;;5032472;28;20415;-88
2022/04/19 12:33:53;;;;;;;;;;;18.10;43.00;;;;;;5032605;28;19913;-88
2022/04/19 12:36:22;;;;;;;;;;;18.20;41.80;;;;;;5033446;28;19915;-88
2022/04/19 12:38:56;;;;;;;;;;;18.20;43.30;;;;;;5030893;28;20385;-88
2022/04/19 12:41:22;;;;;;;;;;;18.20;40.30;;;;;;5032131;28;19951;-89
2022/04/19 12:43:47;;;;;;;;;;;18.10;43.40;;;;;;5003711;28;20430;-88
2022/04/19 12:46:14;;;;;;;;;;;18.10;43.00;;;;;;4999153;28;19921;-88
2022/04/19 12:48:40;;;;;;;;;;;18.00;42.20;;;;;;5025862;28;19921;-87
2022/04/19 12:51:06;;;;;;;;;;;17.90;38.70;;;;;;5034906;28;19913;-87
2022/04/19 12:53:36;;;;;;;;;;;17.90;40.90;;;;;;5032240;28;19992;-88
2022/04/19 12:56:39;;;;;;;;;;;18.00;42.30;;;;;;5032174;28;20328;-88
2022/04/19 12:59:05;;;;;;;;;;;18.00;42.70;;;;;;5032056;28;19909;-88
2022/04/19 13:01:30;;;;;;;;;;;18.00;39.50;;;;;;5031687;28;19917;-88
2022/04/19 13:03:56;;;;;;;;;;;18.00;38.10;;;;;;5031525;28;19970;-88
2022/04/19 13:14:34;;;;;;;;;;;18.00;40.40;;;;;;5031802;28;19924;-88
2022/04/19 13:16:59;;;;;;;;;;;17.90;39.10;;;;;;5014412;28;20004;-88
2022/04/19 13:19:25;;;;;;;;;;;18.00;42.30;;;;;;5029791;28;20224;-88
2022/04/19 13:21:50;;;;;;;;;;;18.00;38.40;;;;;;5016871;28;20004;-87
2022/04/19 13:24:16;;;;;;;;;;;18.00;38.80;;;;;;5030638;28;19913;-88
2022/04/19 13:26:41;;;;;;;;;;;18.00;38.80;;;;;;5043672;28;19924;-88
2022/04/19 13:29:07;;;;;;;;;;;18.00;40.60;;;;;;5049397;28;19919;-88
2022/04/19 13:31:32;;;;;;;;;;;18.00;42.20;;;;;;5049776;28;19936;-88
2022/04/19 13:33:58;;;;;;;;;;;18.00;40.40;;;;;;5049433;28;19962;-89
2022/04/19 13:36:24;;;;;;;;;;;17.90;44.80;;;;;;5019537;28;20228;-88
2022/04/19 13:38:49;;;;;;;;;;;17.90;40.80;;;;;;5029815;28;20013;-88
2022/04/19 13:41:15;;;;;;;;;;;17.90;39.00;;;;;;5013562;28;19923;-88
2022/04/19 13:43:40;;;;;;;;;;;17.90;41.00;;;;;;5030150;28;20373;-88
2022/04/19 13:46:06;;;;;;;;;;;17.90;39.50;;;;;;5040290;28;20137;-88
2022/04/19 13:48:33;;;;;;;;;;;17.90;37.00;;;;;;5070222;28;19933;-89
2022/04/19 13:50:59;;;;;;;;;;;17.90;40.70;;;;;;5072960;28;19929;-88
2022/04/19 13:53:25;;;;;;;;;;;17.90;40.20;;;;;;5039833;28;19931;-89
2022/04/19 13:55:51;;;;;;;;;;;17.90;39.60;;;;;;5025767;28;19917;-88
2022/04/19 13:58:17;;;;;;;;;;;17.90;39.50;;;;;;5029842;28;19918;-88
2022/04/19 14:00:42;;;;;;;;;;;17.90;35.80;;;;;;5056359;28;19980;-88
2022/04/19 14:03:08;;;;;;;;;;;17.90;38.20;;;;;;5012879;28;20015;-89
2022/04/19 14:05:33;;;;;;;;;;;17.80;38.50;;;;;;5009756;28;19918;-88
2022/04/19 14:07:59;;;;;;;;;;;17.80;38.90;;;;;;5009468;28;19929;-89
2022/04/19 14:10:24;;;;;;;;;;;17.80;35.90;;;;;;5025634;28;19913;-89
2022/04/19 14:12:50;;;;;;;;;;;17.70;37.80;;;;;;5029162;28;19982;-89
2022/04/19 14:15:16;;;;;;;;;;;17.70;38.70;;;;;;5013015;28;19917;-88
2022/04/19 14:17:45;;;;;;;;;;;17.70;39.40;;;;;;5029498;28;19913;-89
2022/04/19 14:20:10;;;;;;;;;;;17.70;39.80;;;;;;5028894;28;19913;-89
2022/04/19 14:22:36;;;;;;;;;;;17.70;40.60;;;;;;5029089;28;19917;-89
2022/04/19 14:25:02;;;;;;;;;;;17.80;42.70;;;;;;5012588;28;19928;-89
2022/04/19 14:27:27;;;;;;;;;;;17.80;41.60;;;;;;5028979;28;20005;-89
2022/04/19 14:35:21;;;;;;;;;;;18.00;45.30;;;;;;5053605;28;19920;-88
2022/04/19 14:37:47;;;;;;;;;;;17.90;43.30;;;;;;5047002;28;20386;-88
2022/04/19 14:40:12;;;;;;;;;;;17.90;41.90;;;;;;5032232;28;19913;-89
2022/04/19 14:42:38;;;;;;;;;;;17.80;41.10;;;;;;5032387;28;19913;-87
2022/04/19 14:45:04;;;;;;;;;;;17.80;40.40;;;;;;5041630;28;20015;-88
2022/04/19 14:47:29;;;;;;;;;;;17.80;40.20;;;;;;5036594;28;19929;-88
2022/04/19 14:49:55;;;;;;;;;;;17.90;42.70;;;;;;5052368;28;19962;-88
2022/04/19 14:52:22;;;;;;;;;;;17.90;39.90;;;;;;5033686;28;20380;-89
2022/04/19 14:54:48;;;;;;;;;;;17.90;43.70;;;;;;5037109;28;20377;-88
2022/04/19 14:57:15;;;;;;;;;;;17.80;43.80;;;;;;5032729;28;19913;-88
2022/04/19 14:59:44;;;;;;;;;;;17.80;42.90;;;;;;5015534;28;20274;-88
2022/04/19 15:02:11;;;;;;;;;;;17.70;42.30;;;;;;5033051;28;19913;-88
2022/04/19 15:04:37;;;;;;;;;;;17.60;40.10;;;;;;5035335;28;20344;-88
2022/04/19 15:07:03;;;;;;;;;;;17.60;40.60;;;;;;5038293;28;20281;-87
2022/04/19 15:09:29;;;;;;;;;;;17.50;41.70;;;;;;5035764;28;19913;-88
2022/04/19 15:11:55;;;;;;;;;;;17.50;42.00;;;;;;5034412;28;20327;-88
2022/04/19 15:14:21;;;;;;;;;;;17.50;40.10;;;;;;5027066;28;20028;-87
2022/04/19 15:16:47;;;;;;;;;;;17.40;41.50;;;;;;5022744;28;20349;-88